Terminal Aerodrome Forecast
Issued by NWS Wilmington, OH

Current Version | Previous Version | Graphics & Text | Print | Product List | Glossary On
Versions: 1 2 3 4 5 6 7 8 9 10 11 12 13 14 15 16 17 18
000
FTUS41 KILN 270500
TAFCMH
TAF
KCMH 270535Z 2706/2806 33005KT P6SM FEW035
     FM271100 30006KT P6SM SCT025 BKN035
     FM280000 33003KT P6SM FEW035 SCT200=

USA.gov is the U.S. government's official web portal to all federal, state and local government web resources and services.